createdAt,value
2022-08-17T00:00:11.021Z,8.77
2022-08-17T00:03:00.215Z,7.57
2022-08-17T00:05:32.610Z,9.07
2022-08-17T00:08:01.800Z,6.47
2022-08-17T00:10:29.691Z,7.83
2022-08-17T00:13:00.423Z,7.63
2022-08-17T00:15:28.447Z,9.90
2022-08-17T00:17:56.258Z,7.43
2022-08-17T00:20:30.496Z,7.73
2022-08-17T00:23:10.218Z,7.17
2022-08-17T00:25:38.988Z,9.17
2022-08-17T00:28:07.830Z,7.43
2022-08-17T00:30:50.983Z,7.57
2022-08-17T00:33:23.976Z,9.53
2022-08-17T00:35:52.628Z,7.70
2022-08-17T00:38:22.979Z,8.00
2022-08-17T00:40:55.959Z,8.07
2022-08-17T00:43:30.709Z,6.70
2022-08-17T00:45:59.322Z,8.57
2022-08-17T00:48:29.890Z,7.37
2022-08-17T00:51:07.906Z,8.13
2022-08-17T00:53:40.228Z,8.97
2022-08-17T00:56:11.668Z,7.93
2022-08-17T00:58:40.571Z,9.03
2022-08-17T01:01:11.073Z,8.33
2022-08-17T01:03:39.875Z,7.60
2022-08-17T01:06:10.023Z,7.73
2022-08-17T01:08:40.941Z,7.47
2022-08-17T01:11:10.140Z,7.40
2022-08-17T01:13:41.806Z,7.13
2022-08-17T01:16:17.008Z,8.07
2022-08-17T01:18:46.386Z,9.07
2022-08-17T01:21:21.147Z,7.37
2022-08-17T01:23:50.452Z,8.40
2022-08-17T01:26:19.455Z,8.10
2022-08-17T01:28:53.901Z,8.50
2022-08-17T01:31:24.991Z,8.47
2022-08-17T01:33:53.318Z,10.80
2022-08-17T01:36:21.225Z,9.23
2022-08-17T01:38:50.461Z,8.17
2022-08-17T01:41:19.725Z,7.97
2022-08-17T01:43:51.817Z,7.80
2022-08-17T01:46:26.896Z,8.17
2022-08-17T01:48:55.784Z,8.50
2022-08-17T01:51:24.098Z,8.03
2022-08-17T01:53:58.427Z,8.60
2022-08-17T01:56:27.703Z,6.63
2022-08-17T01:58:55.607Z,8.37
2022-08-17T02:01:26.915Z,8.43
2022-08-17T02:04:01.438Z,8.40
2022-08-17T02:06:31.505Z,7.63
2022-08-17T02:09:16.970Z,7.27
2022-08-17T02:11:46.412Z,7.87
2022-08-17T02:14:14.802Z,7.17
2022-08-17T02:16:42.957Z,7.07
2022-08-17T02:19:13.624Z,8.20
2022-08-17T02:21:43.568Z,9.27
2022-08-17T02:24:16.123Z,7.30
2022-08-17T02:26:44.567Z,7.37
2022-08-17T02:29:12.351Z,8.33
2022-08-17T02:31:40.109Z,7.13
2022-08-17T02:34:08.170Z,8.00
2022-08-17T02:36:37.931Z,9.20
2022-08-17T02:39:08.012Z,8.60
2022-08-17T02:41:37.672Z,8.23
2022-08-17T02:44:06.649Z,8.77
2022-08-17T02:46:34.903Z,8.90
2022-08-17T02:49:02.735Z,6.90
2022-08-17T02:51:30.516Z,6.93
2022-08-17T02:54:02.179Z,7.73
2022-08-17T02:56:47.664Z,7.83
2022-08-17T02:59:15.478Z,6.63
2022-08-17T03:01:43.510Z,8.20
2022-08-17T03:04:11.439Z,7.17
2022-08-17T03:06:39.238Z,7.93
2022-08-17T03:09:07.002Z,7.13
2022-08-17T03:11:35.031Z,10.67
2022-08-17T03:14:04.254Z,9.30
2022-08-17T03:16:32.057Z,7.87
2022-08-17T03:19:01.332Z,7.23
2022-08-17T03:21:29.188Z,9.47
2022-08-17T03:23:57.636Z,7.73
2022-08-17T03:26:25.405Z,7.70
2022-08-17T03:28:58.257Z,8.60
2022-08-17T03:31:27.474Z,9.50
2022-08-17T03:33:55.913Z,7.13
2022-08-17T03:36:24.030Z,7.73
2022-08-17T03:38:51.859Z,8.63
2022-08-17T03:41:20.760Z,8.87
2022-08-17T03:43:48.559Z,8.77
2022-08-17T03:46:35.493Z,8.57
2022-08-17T03:49:24.699Z,9.47
2022-08-17T03:52:10.014Z,10.40
2022-08-17T03:54:55.886Z,7.43
2022-08-17T03:57:23.953Z,7.83
2022-08-17T03:59:51.887Z,8.67
2022-08-17T04:02:24.228Z,8.40
2022-08-17T04:04:54.170Z,7.77
2022-08-17T04:07:24.647Z,6.90
2022-08-17T04:09:52.498Z,8.23
2022-08-17T04:12:22.899Z,8.00
2022-08-17T04:14:52.874Z,7.73
2022-08-17T04:17:22.914Z,9.83
2022-08-17T04:19:50.703Z,7.13
2022-08-17T04:22:33.234Z,7.00
2022-08-17T04:25:05.677Z,7.77
2022-08-17T04:27:33.521Z,7.63
2022-08-17T04:30:01.401Z,7.23
2022-08-17T04:33:04.503Z,9.60
2022-08-17T04:35:20.235Z,6.93
2022-08-17T04:37:50.270Z,6.50
2022-08-17T04:40:37.070Z,7.77
2022-08-17T04:43:07.168Z,5.97
2022-08-17T04:45:35.043Z,6.60
2022-08-17T04:48:04.240Z,6.97
2022-08-17T04:50:32.048Z,7.93
2022-08-17T04:53:01.479Z,7.13
2022-08-17T04:55:29.744Z,8.03
2022-08-17T04:57:57.544Z,8.67
2022-08-17T05:00:25.973Z,7.80
2022-08-17T05:02:56.120Z,6.57
2022-08-17T05:05:27.114Z,6.00
2022-08-17T05:07:57.059Z,6.70
2022-08-17T05:10:29.209Z,7.23
2022-08-17T05:13:00.567Z,6.87
2022-08-17T05:15:33.013Z,5.97
2022-08-17T05:18:04.370Z,5.83
2022-08-17T05:20:32.723Z,7.37
2022-08-17T05:23:04.522Z,5.57
2022-08-17T05:25:37.370Z,4.80
2022-08-17T05:28:06.428Z,7.25
2022-08-17T05:30:35.703Z,5.60
2022-08-17T05:33:06.176Z,5.60
2022-08-17T05:35:37.397Z,6.80
2022-08-17T05:38:07.926Z,6.30
2022-08-17T05:40:38.260Z,5.22
2022-08-17T05:43:08.096Z,6.15
2022-08-17T05:45:54.655Z,5.68
2022-08-17T05:48:35.399Z,7.07
2022-08-17T05:51:23.585Z,8.23
2022-08-17T05:53:59.626Z,7.45
2022-08-17T05:56:48.024Z,8.18
2022-08-17T05:59:21.737Z,5.93
2022-08-17T06:01:57.695Z,5.25
2022-08-17T06:04:36.976Z,6.38
2022-08-17T06:07:10.774Z,7.07
2022-08-17T06:09:43.098Z,5.90
2022-08-17T06:12:26.493Z,6.32
2022-08-17T06:15:10.650Z,6.78
2022-08-17T06:17:39.124Z,6.15
2022-08-17T06:20:11.284Z,5.93
2022-08-17T06:22:44.631Z,6.25
2022-08-17T06:25:17.950Z,6.17
2022-08-17T06:27:53.839Z,5.33
2022-08-17T06:30:25.726Z,5.97
2022-08-17T06:32:55.693Z,7.57
2022-08-17T06:35:43.787Z,6.72
2022-08-17T06:38:38.059Z,8.35
2022-08-17T06:41:15.475Z,5.68
2022-08-17T06:44:01.705Z,6.15
2022-08-17T06:46:35.991Z,5.90
2022-08-17T06:49:12.524Z,5.78
2022-08-17T06:51:45.574Z,5.55
2022-08-17T06:54:19.729Z,7.60
2022-08-17T06:56:55.330Z,4.97
2022-08-17T06:59:53.210Z,6.68
2022-08-17T07:02:29.072Z,5.15
2022-08-17T07:05:13.014Z,6.78
2022-08-17T07:08:05.317Z,5.82
2022-08-17T07:10:38.836Z,6.78
2022-08-17T07:13:26.365Z,6.53
2022-08-17T07:16:04.665Z,5.97
2022-08-17T07:18:34.495Z,5.82
2022-08-17T07:21:14.125Z,6.32
2022-08-17T07:23:55.241Z,7.30
2022-08-17T07:26:24.802Z,5.50
2022-08-17T07:28:52.758Z,5.65
2022-08-17T07:31:21.968Z,6.30
2022-08-17T07:34:06.666Z,6.22
2022-08-17T07:36:34.777Z,6.05
2022-08-17T07:39:04.647Z,6.55
2022-08-17T07:41:57.504Z,7.65
2022-08-17T07:44:27.213Z,8.48
2022-08-17T07:47:14.338Z,9.65
2022-08-17T07:49:45.961Z,11.88
2022-08-17T07:52:51.743Z,15.80
2022-08-17T07:55:29.376Z,11.80
2022-08-17T07:57:58.782Z,9.90
2022-08-17T08:00:32.317Z,8.75
2022-08-17T08:03:21.625Z,5.72
2022-08-17T08:05:55.282Z,6.75
2022-08-17T08:08:28.427Z,11.57
2022-08-17T08:11:04.239Z,8.38
2022-08-17T08:13:33.187Z,3.92
2022-08-17T08:16:21.978Z,6.40
2022-08-17T08:18:56.897Z,5.65
2022-08-17T08:21:34.346Z,5.57
2022-08-17T08:24:18.639Z,6.90
2022-08-17T08:26:55.493Z,5.57
2022-08-17T08:29:32.669Z,5.22
2022-08-17T08:32:07.581Z,4.80
2022-08-17T08:34:58.654Z,9.50
2022-08-17T08:37:42.688Z,5.70
2022-08-17T08:40:24.732Z,9.32
2022-08-17T08:42:59.990Z,6.82
2022-08-17T08:45:38.154Z,3.97
2022-08-17T08:48:58.105Z,4.65
2022-08-17T08:51:15.132Z,6.03
2022-08-17T08:53:49.490Z,4.30
2022-08-17T08:56:25.761Z,4.03
2022-08-17T08:59:00.561Z,5.18
2022-08-17T09:01:35.745Z,4.95
2022-08-17T09:04:25.582Z,4.10
2022-08-17T09:07:04.199Z,5.18
2022-08-17T09:09:40.977Z,4.65
2022-08-17T09:12:16.752Z,3.80
2022-08-17T09:14:55.430Z,3.88
2022-08-17T09:17:31.180Z,4.25
2022-08-17T09:20:04.637Z,4.18
2022-08-17T09:22:37.402Z,5.25
2022-08-17T09:25:11.842Z,3.85
2022-08-17T09:27:54.767Z,4.03
2022-08-17T09:30:23.703Z,5.85
2022-08-17T09:32:55.380Z,6.30
2022-08-17T09:35:32.746Z,6.20
2022-08-17T09:38:17.584Z,4.45
2022-08-17T09:40:51.414Z,7.35
2022-08-17T09:43:28.608Z,4.85
2022-08-17T09:45:59.755Z,4.75
2022-08-17T09:48:31.699Z,5.82
2022-08-17T09:51:07.010Z,5.13
2022-08-17T09:53:38.075Z,5.65
2022-08-17T09:56:23.938Z,5.85
2022-08-17T09:59:07.657Z,5.60
2022-08-17T10:01:39.783Z,4.30
2022-08-17T10:04:29.334Z,5.82
2022-08-17T10:07:02.370Z,5.43
2022-08-17T10:09:43.799Z,4.45
2022-08-17T10:12:29.723Z,6.95
2022-08-17T10:15:09.647Z,3.92
2022-08-17T10:17:45.379Z,4.35
2022-08-17T10:20:18.175Z,5.63
2022-08-17T10:23:09.895Z,5.25
2022-08-17T10:26:09.437Z,5.03
2022-08-17T10:28:44.191Z,6.30
2022-08-17T10:31:35.839Z,5.22
2022-08-17T10:34:25.379Z,5.18
2022-08-17T10:36:59.366Z,4.50
2022-08-17T10:39:50.457Z,5.03
2022-08-17T10:42:30.809Z,5.28
2022-08-17T10:45:06.976Z,5.45
2022-08-17T10:48:06.157Z,5.32
2022-08-17T10:51:02.143Z,4.10
2022-08-17T10:53:52.908Z,7.07
2022-08-17T10:56:39.986Z,4.47
2022-08-17T10:59:09.447Z,5.47
2022-08-17T11:02:13.882Z,4.18
2022-08-17T11:04:55.357Z,5.13
2022-08-17T11:07:37.894Z,5.40
2022-08-17T11:10:20.680Z,5.63
2022-08-17T11:12:55.236Z,6.45
2022-08-17T11:15:39.524Z,6.35
2022-08-17T11:18:29.552Z,5.63
2022-08-17T11:21:13.507Z,5.40
2022-08-17T11:24:06.879Z,6.20
2022-08-17T11:26:37.508Z,6.10
2022-08-17T11:29:08.970Z,6.47
2022-08-17T11:31:41.673Z,6.18
2022-08-17T11:34:19.875Z,6.75
2022-08-17T11:37:04.313Z,8.05
2022-08-17T11:39:46.280Z,6.10
2022-08-17T11:42:31.830Z,6.13
2022-08-17T11:45:04.389Z,5.72
2022-08-17T11:51:16.213Z,6.18
2022-08-17T11:54:31.636Z,5.75
2022-08-17T11:56:54.752Z,9.57
2022-08-17T11:59:58.592Z,5.43
2022-08-17T12:02:49.323Z,5.18
2022-08-17T12:05:33.805Z,3.80
2022-08-17T12:08:19.692Z,4.72
2022-08-17T12:10:56.922Z,4.80
2022-08-17T12:13:27.429Z,6.38
2022-08-17T12:16:07.264Z,5.70
2022-08-17T12:18:39.560Z,6.63
2022-08-17T12:21:22.754Z,5.43
2022-08-17T12:23:57.991Z,5.13
2022-08-17T12:26:30.232Z,4.43
2022-08-17T12:29:01.899Z,5.75
2022-08-17T12:31:34.406Z,4.75
2022-08-17T12:34:04.131Z,4.45
2022-08-17T12:36:33.581Z,6.28
2022-08-17T12:39:14.248Z,6.15
2022-08-17T12:41:44.841Z,6.50
2022-08-17T12:44:16.218Z,4.70
2022-08-17T12:46:51.547Z,4.95
2022-08-17T12:49:29.568Z,4.47
2022-08-17T12:52:24.584Z,5.38
2022-08-17T12:54:59.488Z,5.05
2022-08-17T12:57:32.682Z,5.57
2022-08-17T13:00:03.138Z,4.95
2022-08-17T13:02:44.577Z,5.28
2022-08-17T13:05:22.827Z,6.30
2022-08-17T13:07:53.095Z,5.35
2022-08-17T13:10:30.028Z,6.35
2022-08-17T13:13:04.468Z,6.10
2022-08-17T13:15:35.250Z,7.00
2022-08-17T13:18:07.846Z,5.20
2022-08-17T13:20:37.926Z,5.63
2022-08-17T13:23:12.014Z,5.75
2022-08-17T13:25:40.502Z,6.07
2022-08-17T13:28:18.775Z,5.85
2022-08-17T13:31:24.053Z,4.75
2022-08-17T13:33:52.970Z,5.25
2022-08-17T13:36:33.570Z,6.03
2022-08-17T13:39:09.583Z,5.90
2022-08-17T13:41:38.910Z,4.25
2022-08-17T13:44:31.218Z,4.43
2022-08-17T13:47:00.584Z,5.18
2022-08-17T13:49:48.181Z,4.13
2022-08-17T13:55:18.514Z,6.03
2022-08-17T13:57:47.687Z,4.25
2022-08-17T14:00:20.195Z,7.03
2022-08-17T14:02:47.991Z,5.53
2022-08-17T14:05:15.921Z,6.20
2022-08-17T14:07:43.759Z,5.60
2022-08-17T14:10:15.861Z,4.82
2022-08-17T14:12:45.453Z,5.95
2022-08-17T14:15:14.969Z,5.22
2022-08-17T14:17:43.173Z,5.00
2022-08-17T14:20:13.144Z,5.82
2022-08-17T14:22:44.257Z,5.85
2022-08-17T14:25:16.617Z,6.63
2022-08-17T14:27:53.567Z,5.28
2022-08-17T14:30:24.662Z,6.00
2022-08-17T14:32:53.666Z,5.18
2022-08-17T14:35:23.777Z,6.28
2022-08-17T14:37:52.358Z,4.35
2022-08-17T14:40:24.822Z,5.85
2022-08-17T14:42:55.086Z,5.45
2022-08-17T14:45:31.926Z,5.78
2022-08-17T14:48:02.607Z,5.88
2022-08-17T14:50:30.527Z,5.75
2022-08-17T14:53:01.533Z,6.32
2022-08-17T14:55:32.366Z,5.47
2022-08-17T14:58:00.243Z,4.78
2022-08-17T15:00:28.585Z,4.57
2022-08-17T15:02:58.961Z,6.18
2022-08-17T15:05:30.521Z,6.65
2022-08-17T15:07:58.776Z,5.68
2022-08-17T15:10:27.806Z,4.75
2022-08-17T15:12:57.257Z,5.68
2022-08-17T15:15:25.426Z,5.65
2022-08-17T15:17:53.335Z,6.13
2022-08-17T15:20:23.797Z,5.90
2022-08-17T15:22:54.928Z,5.70
2022-08-17T15:25:23.106Z,4.55
2022-08-17T15:27:51.535Z,6.10
2022-08-17T15:30:21.347Z,5.28
2022-08-17T15:32:53.933Z,5.03
2022-08-17T15:35:27.595Z,9.07
2022-08-17T15:37:58.030Z,4.63
2022-08-17T15:40:26.079Z,5.45
2022-08-17T15:42:54.023Z,4.97
2022-08-17T15:45:26.639Z,4.75
2022-08-17T15:47:54.942Z,4.13
2022-08-17T15:50:22.887Z,6.78
2022-08-17T15:52:58.014Z,4.35
2022-08-17T15:55:28.108Z,6.22
2022-08-17T15:57:55.996Z,4.63
2022-08-17T16:00:25.758Z,5.78
2022-08-17T16:03:46.345Z,4.57
2022-08-17T16:05:42.395Z,6.68
2022-08-17T16:08:11.082Z,4.25
2022-08-17T16:10:39.303Z,5.85
2022-08-17T16:13:17.141Z,5.63
2022-08-17T16:15:56.540Z,8.15
2022-08-17T16:18:28.155Z,6.10
2022-08-17T16:20:56.132Z,6.93
2022-08-17T16:23:24.716Z,6.55
2022-08-17T16:25:54.283Z,4.80
2022-08-17T16:28:30.855Z,5.05
2022-08-17T16:31:05.824Z,5.22
2022-08-17T16:33:37.649Z,4.35
2022-08-17T16:36:07.205Z,4.72
2022-08-17T16:38:35.704Z,5.30
2022-08-17T16:41:03.741Z,4.72
2022-08-17T16:43:31.579Z,5.03
2022-08-17T16:46:00.727Z,6.40
2022-08-17T16:48:30.958Z,4.72
2022-08-17T16:51:04.057Z,4.43
2022-08-17T16:53:32.550Z,4.97
2022-08-17T16:56:00.318Z,4.95
2022-08-17T16:58:28.207Z,4.80
2022-08-17T17:00:59.694Z,5.70
2022-08-17T17:03:31.097Z,4.50
2022-08-17T17:06:07.876Z,5.32
2022-08-17T17:08:43.590Z,4.63
2022-08-17T17:11:15.550Z,4.00
2022-08-17T17:13:49.404Z,4.72
2022-08-17T17:16:23.918Z,5.40
2022-08-17T17:19:08.902Z,5.38
2022-08-17T17:21:43.424Z,4.50
2022-08-17T17:24:15.304Z,5.13
2022-08-17T17:27:07.052Z,4.25
2022-08-17T17:29:50.115Z,4.50
2022-08-17T17:32:22.685Z,5.03
2022-08-17T17:35:01.702Z,4.57
2022-08-17T17:37:35.225Z,4.07
2022-08-17T17:40:07.395Z,4.93
2022-08-17T17:42:36.483Z,5.00
2022-08-17T17:45:10.610Z,5.18
2022-08-17T17:47:38.610Z,4.25
2022-08-17T17:50:08.782Z,6.55
2022-08-17T17:52:47.446Z,5.93
2022-08-17T17:55:32.792Z,4.78
2022-08-17T17:58:10.019Z,6.25
2022-08-17T18:00:44.730Z,6.35
2022-08-17T18:03:26.158Z,5.78
2022-08-17T18:06:12.535Z,5.03
2022-08-17T18:09:01.977Z,5.72
2022-08-17T18:12:00.861Z,6.22
2022-08-17T18:14:47.476Z,5.82
2022-08-17T18:17:15.313Z,7.35
2022-08-17T18:19:43.080Z,7.10
2022-08-17T18:22:15.236Z,9.10
2022-08-17T18:24:45.006Z,7.33
2022-08-17T18:27:23.196Z,10.53
2022-08-17T18:29:53.866Z,6.77
2022-08-17T18:32:39.972Z,7.47
2022-08-17T18:35:30.994Z,6.60
2022-08-17T18:38:20.746Z,6.60
2022-08-17T18:40:59.658Z,7.67
2022-08-17T18:43:44.182Z,7.23
2022-08-17T18:46:29.000Z,6.70
2022-08-17T18:49:00.166Z,6.23
2022-08-17T18:51:42.383Z,6.40
2022-08-17T18:54:19.632Z,8.57
2022-08-17T18:56:54.092Z,8.17
2022-08-17T18:59:29.277Z,7.23
2022-08-17T19:02:27.363Z,7.77
2022-08-17T19:05:13.231Z,5.37
2022-08-17T19:07:43.315Z,7.83
2022-08-17T19:10:25.001Z,6.03
2022-08-17T19:13:00.744Z,5.60
2022-08-17T19:15:33.998Z,5.80
2022-08-17T19:18:05.519Z,6.37
2022-08-17T19:20:38.530Z,5.93
2022-08-17T19:23:14.022Z,8.13
2022-08-17T19:25:48.511Z,6.27
2022-08-17T19:28:22.958Z,6.47
2022-08-17T19:30:56.040Z,5.47
2022-08-17T19:33:23.922Z,5.83
2022-08-17T19:36:01.845Z,5.70
2022-08-17T19:38:46.651Z,6.77
2022-08-17T19:41:23.095Z,6.57
2022-08-17T19:44:13.266Z,5.77
2022-08-17T19:46:50.009Z,5.37
2022-08-17T19:49:33.537Z,5.47
2022-08-17T19:52:34.116Z,6.60
2022-08-17T19:55:07.352Z,5.90
2022-08-17T19:57:47.150Z,6.87
2022-08-17T20:00:17.246Z,5.80
2022-08-17T20:02:53.452Z,5.97
2022-08-17T20:05:24.009Z,7.27
2022-08-17T20:07:56.201Z,4.97
2022-08-17T20:10:40.292Z,6.33
2022-08-17T20:13:13.286Z,6.30
2022-08-17T20:15:43.487Z,6.00
2022-08-17T20:18:19.345Z,7.40
2022-08-17T20:20:55.897Z,7.60
2022-08-17T20:23:41.940Z,10.27
2022-08-17T20:26:19.485Z,7.50
2022-08-17T20:29:37.531Z,6.97
2022-08-17T20:32:23.246Z,6.33
2022-08-17T20:35:04.142Z,7.60
2022-08-17T20:37:34.809Z,7.40
2022-08-17T20:40:25.823Z,6.70
2022-08-17T20:42:54.110Z,6.63
2022-08-17T20:45:49.306Z,5.10
2022-08-17T20:48:36.898Z,7.00
2022-08-17T20:51:23.426Z,6.93
2022-08-17T20:54:23.239Z,6.00
2022-08-17T20:56:56.156Z,5.03
2022-08-17T20:59:56.302Z,5.23
2022-08-17T21:02:28.895Z,5.13
2022-08-17T21:05:07.883Z,6.07
2022-08-17T21:07:58.842Z,5.43
2022-08-17T21:10:35.577Z,5.17
2022-08-17T21:13:32.459Z,7.23
2022-08-17T21:16:06.272Z,5.83
2022-08-17T21:18:42.344Z,5.77
2022-08-17T21:21:23.863Z,6.60
2022-08-17T21:24:20.263Z,5.10
2022-08-17T21:26:58.173Z,5.70
2022-08-17T21:29:31.827Z,5.20
2022-08-17T21:32:24.221Z,5.30
2022-08-17T21:35:30.992Z,8.90
2022-08-17T21:38:03.992Z,5.37
2022-08-17T21:40:34.083Z,5.13
2022-08-17T21:43:08.977Z,6.97
2022-08-17T21:45:42.920Z,5.67
2022-08-17T21:48:15.432Z,5.53
2022-08-17T21:50:48.250Z,6.00
2022-08-17T21:53:30.703Z,6.53
2022-08-17T21:56:00.725Z,5.70
2022-08-17T21:58:31.716Z,5.63
2022-08-17T22:01:23.438Z,5.67
2022-08-17T22:04:01.482Z,6.13
2022-08-17T22:06:36.880Z,6.83
2022-08-17T22:09:15.506Z,7.10
2022-08-17T22:11:57.674Z,6.63
2022-08-17T22:14:27.743Z,9.17
2022-08-17T22:17:19.818Z,7.83
2022-08-17T22:19:51.389Z,8.07
2022-08-17T22:22:34.918Z,7.17
2022-08-17T22:25:04.467Z,6.87
2022-08-17T22:27:54.328Z,9.80
2022-08-17T22:30:35.210Z,6.80
2022-08-17T22:33:18.542Z,8.30
2022-08-17T22:35:47.812Z,7.30
2022-08-17T22:38:35.062Z,7.67
2022-08-17T22:41:36.600Z,6.93
2022-08-17T22:44:14.993Z,8.20
2022-08-17T22:46:51.624Z,6.60
2022-08-17T22:49:26.476Z,7.97
2022-08-17T22:52:02.265Z,6.10
2022-08-17T22:54:49.460Z,7.23
2022-08-17T22:57:36.319Z,5.67
2022-08-17T23:00:05.731Z,5.40
2022-08-17T23:02:35.787Z,6.33
2022-08-17T23:05:22.835Z,6.30
2022-08-17T23:07:53.399Z,7.47
2022-08-17T23:10:22.504Z,6.27
2022-08-17T23:12:50.355Z,5.70
2022-08-17T23:15:19.636Z,5.20
2022-08-17T23:17:47.670Z,5.50
2022-08-17T23:20:17.486Z,8.93
2022-08-17T23:22:52.659Z,6.13
2022-08-17T23:25:27.880Z,6.83
2022-08-17T23:27:57.319Z,6.33
2022-08-17T23:30:28.393Z,6.30
2022-08-17T23:32:56.777Z,7.13
2022-08-17T23:35:38.884Z,5.33
2022-08-17T23:38:09.276Z,6.77
2022-08-17T23:40:39.245Z,5.43
2022-08-17T23:43:24.704Z,6.20
2022-08-17T23:45:54.862Z,5.87
2022-08-17T23:48:35.479Z,7.40
2022-08-17T23:51:08.988Z,5.97
2022-08-17T23:53:38.089Z,6.57
2022-08-17T23:56:11.137Z,7.00
2022-08-17T23:58:41.968Z,6.67
